sensor_id;sensor_type;location;lat;lon;timestamp;P1;durP1;ratioP1;P2;durP2;ratioP2
13764;SDS011;6953;48.810;9.204;2022-12-22T00:01:50;0.50;;;0.50;;
13764;SDS011;6953;48.810;9.204;2022-12-22T00:04:34;0.57;;;0.57;;
13764;SDS011;6953;48.810;9.204;2022-12-22T00:07:17;0.45;;;0.45;;
13764;SDS011;6953;48.810;9.204;2022-12-22T00:10:01;0.50;;;0.50;;
13764;SDS011;6953;48.810;9.204;2022-12-22T00:12:45;0.50;;;0.50;;
13764;SDS011;6953;48.810;9.204;2022-12-22T00:15:30;0.40;;;0.40;;
13764;SDS011;6953;48.810;9.204;2022-12-22T00:18:16;0.50;;;0.50;;
13764;SDS011;6953;48.810;9.204;2022-12-22T00:21:00;0.43;;;0.43;;
13764;SDS011;6953;48.810;9.204;2022-12-22T00:23:44;0.50;;;0.50;;
13764;SDS011;6953;48.810;9.204;2022-12-22T00:26:28;0.50;;;0.50;;
13764;SDS011;6953;48.810;9.204;2022-12-22T00:29:13;0.50;;;0.50;;
13764;SDS011;6953;48.810;9.204;2022-12-22T00:31:58;0.50;;;0.50;;
13764;SDS011;6953;48.810;9.204;2022-12-22T00:34:43;0.50;;;0.50;;
13764;SDS011;6953;48.810;9.204;2022-12-22T00:37:33;0.57;;;0.57;;
13764;SDS011;6953;48.810;9.204;2022-12-22T00:40:20;0.55;;;0.55;;
13764;SDS011;6953;48.810;9.204;2022-12-22T00:43:08;0.50;;;0.50;;
13764;SDS011;6953;48.810;9.204;2022-12-22T00:45:52;0.50;;;0.50;;
13764;SDS011;6953;48.810;9.204;2022-12-22T00:48:36;0.45;;;0.45;;
13764;SDS011;6953;48.810;9.204;2022-12-22T00:51:22;0.50;;;0.50;;
13764;SDS011;6953;48.810;9.204;2022-12-22T00:54:07;0.50;;;0.50;;
13764;SDS011;6953;48.810;9.204;2022-12-22T00:56:52;0.50;;;0.50;;
13764;SDS011;6953;48.810;9.204;2022-12-22T00:59:35;0.50;;;0.50;;
13764;SDS011;6953;48.810;9.204;2022-12-22T01:02:20;0.50;;;0.50;;
13764;SDS011;6953;48.810;9.204;2022-12-22T01:05:03;0.50;;;0.50;;
13764;SDS011;6953;48.810;9.204;2022-12-22T01:07:48;0.50;;;0.50;;
13764;SDS011;6953;48.810;9.204;2022-12-22T01:10:31;0.40;;;0.40;;
13764;SDS011;6953;48.810;9.204;2022-12-22T01:13:15;0.50;;;0.50;;
13764;SDS011;6953;48.810;9.204;2022-12-22T01:16:00;0.50;;;0.50;;
13764;SDS011;6953;48.810;9.204;2022-12-22T01:18:44;0.50;;;0.50;;
13764;SDS011;6953;48.810;9.204;2022-12-22T01:21:28;0.50;;;0.50;;
13764;SDS011;6953;48.810;9.204;2022-12-22T01:24:13;0.50;;;0.50;;
13764;SDS011;6953;48.810;9.204;2022-12-22T01:27:00;0.50;;;0.50;;
13764;SDS011;6953;48.810;9.204;2022-12-22T01:29:44;0.40;;;0.40;;
13764;SDS011;6953;48.810;9.204;2022-12-22T01:32:29;0.50;;;0.50;;
13764;SDS011;6953;48.810;9.204;2022-12-22T01:35:19;0.50;;;0.50;;
13764;SDS011;6953;48.810;9.204;2022-12-22T01:38:05;0.60;;;0.60;;
13764;SDS011;6953;48.810;9.204;2022-12-22T01:40:49;0.50;;;0.50;;
13764;SDS011;6953;48.810;9.204;2022-12-22T01:43:35;0.50;;;0.50;;
13764;SDS011;6953;48.810;9.204;2022-12-22T01:46:23;0.57;;;0.57;;
13764;SDS011;6953;48.810;9.204;2022-12-22T01:49:17;0.50;;;0.50;;
13764;SDS011;6953;48.810;9.204;2022-12-22T01:52:04;0.52;;;0.52;;
13764;SDS011;6953;48.810;9.204;2022-12-22T01:54:50;0.50;;;0.50;;
13764;SDS011;6953;48.810;9.204;2022-12-22T01:57:35;0.60;;;0.60;;
13764;SDS011;6953;48.810;9.204;2022-12-22T02:00:19;0.50;;;0.50;;
13764;SDS011;6953;48.810;9.204;2022-12-22T02:03:13;0.60;;;0.60;;
13764;SDS011;6953;48.810;9.204;2022-12-22T02:06:16;0.60;;;0.60;;
13764;SDS011;6953;48.810;9.204;2022-12-22T02:09:32;0.50;;;0.50;;
13764;SDS011;6953;48.810;9.204;2022-12-22T02:12:37;0.50;;;0.50;;
13764;SDS011;6953;48.810;9.204;2022-12-22T02:15:30;0.50;;;0.50;;
13764;SDS011;6953;48.810;9.204;2022-12-22T02:18:27;0.40;;;0.40;;
13764;SDS011;6953;48.810;9.204;2022-12-22T02:21:13;0.55;;;0.55;;
13764;SDS011;6953;48.810;9.204;2022-12-22T02:27:14;0.57;;;0.57;;
13764;SDS011;6953;48.810;9.204;2022-12-22T02:30:03;0.50;;;0.50;;
13764;SDS011;6953;48.810;9.204;2022-12-22T02:32:49;0.50;;;0.50;;
13764;SDS011;6953;48.810;9.204;2022-12-22T02:35:44;0.40;;;0.40;;
13764;SDS011;6953;48.810;9.204;2022-12-22T02:38:40;0.50;;;0.50;;
13764;SDS011;6953;48.810;9.204;2022-12-22T02:41:38;0.50;;;0.50;;
13764;SDS011;6953;48.810;9.204;2022-12-22T02:47:43;0.52;;;0.52;;
13764;SDS011;6953;48.810;9.204;2022-12-22T02:50:54;0.50;;;0.50;;
13764;SDS011;6953;48.810;9.204;2022-12-22T02:53:54;0.50;;;0.50;;
13764;SDS011;6953;48.810;9.204;2022-12-22T02:56:40;0.50;;;0.50;;
13764;SDS011;6953;48.810;9.204;2022-12-22T02:59:25;0.60;;;0.60;;
13764;SDS011;6953;48.810;9.204;2022-12-22T03:02:09;0.60;;;0.60;;
13764;SDS011;6953;48.810;9.204;2022-12-22T03:04:55;0.50;;;0.50;;
13764;SDS011;6953;48.810;9.204;2022-12-22T03:07:39;0.50;;;0.50;;
13764;SDS011;6953;48.810;9.204;2022-12-22T03:10:23;0.50;;;0.50;;
13764;SDS011;6953;48.810;9.204;2022-12-22T03:13:07;0.50;;;0.50;;
13764;SDS011;6953;48.810;9.204;2022-12-22T03:15:51;0.50;;;0.50;;
13764;SDS011;6953;48.810;9.204;2022-12-22T03:18:35;0.40;;;0.40;;
13764;SDS011;6953;48.810;9.204;2022-12-22T03:21:19;0.50;;;0.50;;
13764;SDS011;6953;48.810;9.204;2022-12-22T03:24:03;0.40;;;0.40;;
13764;SDS011;6953;48.810;9.204;2022-12-22T03:26:47;0.50;;;0.50;;
13764;SDS011;6953;48.810;9.204;2022-12-22T03:29:13;0.50;;;0.50;;
13764;SDS011;6953;48.810;9.204;2022-12-22T03:31:38;0.50;;;0.50;;
13764;SDS011;6953;48.810;9.204;2022-12-22T03:34:03;0.50;;;0.50;;
13764;SDS011;6953;48.810;9.204;2022-12-22T03:36:29;0.50;;;0.50;;
13764;SDS011;6953;48.810;9.204;2022-12-22T03:38:54;0.50;;;0.50;;
13764;SDS011;6953;48.810;9.204;2022-12-22T03:41:19;0.50;;;0.50;;
13764;SDS011;6953;48.810;9.204;2022-12-22T03:44:03;0.40;;;0.40;;
13764;SDS011;6953;48.810;9.204;2022-12-22T03:46:47;0.50;;;0.50;;
13764;SDS011;6953;48.810;9.204;2022-12-22T03:49:13;0.50;;;0.50;;
13764;SDS011;6953;48.810;9.204;2022-12-22T03:54:07;0.50;;;0.50;;
13764;SDS011;6953;48.810;9.204;2022-12-22T03:56:33;0.45;;;0.45;;
13764;SDS011;6953;48.810;9.204;2022-12-22T03:58:59;0.40;;;0.40;;
13764;SDS011;6953;48.810;9.204;2022-12-22T04:01:24;0.40;;;0.40;;
13764;SDS011;6953;48.810;9.204;2022-12-22T04:03:50;0.40;;;0.40;;
13764;SDS011;6953;48.810;9.204;2022-12-22T04:06:16;0.40;;;0.40;;
13764;SDS011;6953;48.810;9.204;2022-12-22T04:08:42;0.40;;;0.40;;
13764;SDS011;6953;48.810;9.204;2022-12-22T04:11:08;0.50;;;0.50;;
13764;SDS011;6953;48.810;9.204;2022-12-22T04:13:54;0.40;;;0.40;;
13764;SDS011;6953;48.810;9.204;2022-12-22T04:16:19;0.38;;;0.38;;
13764;SDS011;6953;48.810;9.204;2022-12-22T04:18:44;0.40;;;0.40;;
13764;SDS011;6953;48.810;9.204;2022-12-22T04:21:10;0.40;;;0.40;;
13764;SDS011;6953;48.810;9.204;2022-12-22T04:23:35;0.50;;;0.50;;
13764;SDS011;6953;48.810;9.204;2022-12-22T04:26:00;0.40;;;0.40;;
13764;SDS011;6953;48.810;9.204;2022-12-22T04:28:26;0.50;;;0.50;;
13764;SDS011;6953;48.810;9.204;2022-12-22T04:30:51;0.50;;;0.50;;
13764;SDS011;6953;48.810;9.204;2022-12-22T04:33:16;0.50;;;0.50;;
13764;SDS011;6953;48.810;9.204;2022-12-22T04:35:42;0.50;;;0.50;;
13764;SDS011;6953;48.810;9.204;2022-12-22T04:38:08;0.40;;;0.40;;
13764;SDS011;6953;48.810;9.204;2022-12-22T04:40:33;0.50;;;0.50;;
13764;SDS011;6953;48.810;9.204;2022-12-22T04:42:58;0.43;;;0.43;;
13764;SDS011;6953;48.810;9.204;2022-12-22T04:45:25;0.50;;;0.50;;
13764;SDS011;6953;48.810;9.204;2022-12-22T04:47:50;0.50;;;0.50;;
13764;SDS011;6953;48.810;9.204;2022-12-22T04:50:15;0.50;;;0.50;;
13764;SDS011;6953;48.810;9.204;2022-12-22T04:52:41;0.50;;;0.50;;
13764;SDS011;6953;48.810;9.204;2022-12-22T04:55:07;0.50;;;0.50;;
13764;SDS011;6953;48.810;9.204;2022-12-22T04:57:33;0.50;;;0.50;;
13764;SDS011;6953;48.810;9.204;2022-12-22T04:59:58;0.50;;;0.50;;
13764;SDS011;6953;48.810;9.204;2022-12-22T05:02:24;0.50;;;0.50;;
13764;SDS011;6953;48.810;9.204;2022-12-22T05:04:49;0.50;;;0.50;;
13764;SDS011;6953;48.810;9.204;2022-12-22T05:07:14;0.50;;;0.50;;
13764;SDS011;6953;48.810;9.204;2022-12-22T05:09:40;0.50;;;0.50;;
13764;SDS011;6953;48.810;9.204;2022-12-22T05:12:05;0.50;;;0.50;;
13764;SDS011;6953;48.810;9.204;2022-12-22T05:14:50;0.50;;;0.50;;
13764;SDS011;6953;48.810;9.204;2022-12-22T05:17:16;0.40;;;0.40;;
13764;SDS011;6953;48.810;9.204;2022-12-22T05:19:41;0.40;;;0.40;;
13764;SDS011;6953;48.810;9.204;2022-12-22T05:22:07;0.50;;;0.50;;
13764;SDS011;6953;48.810;9.204;2022-12-22T05:24:32;0.40;;;0.40;;
13764;SDS011;6953;48.810;9.204;2022-12-22T05:26:57;0.40;;;0.40;;
13764;SDS011;6953;48.810;9.204;2022-12-22T05:29:23;0.40;;;0.40;;
13764;SDS011;6953;48.810;9.204;2022-12-22T05:31:48;0.50;;;0.50;;
13764;SDS011;6953;48.810;9.204;2022-12-22T05:34:13;0.40;;;0.40;;
13764;SDS011;6953;48.810;9.204;2022-12-22T05:36:39;0.40;;;0.40;;
13764;SDS011;6953;48.810;9.204;2022-12-22T05:39:04;0.50;;;0.50;;
13764;SDS011;6953;48.810;9.204;2022-12-22T05:41:29;0.50;;;0.50;;
13764;SDS011;6953;48.810;9.204;2022-12-22T05:43:55;0.50;;;0.50;;
13764;SDS011;6953;48.810;9.204;2022-12-22T05:46:20;0.50;;;0.50;;
13764;SDS011;6953;48.810;9.204;2022-12-22T05:48:47;0.40;;;0.40;;
13764;SDS011;6953;48.810;9.204;2022-12-22T05:51:13;0.50;;;0.50;;
13764;SDS011;6953;48.810;9.204;2022-12-22T05:53:38;0.50;;;0.50;;
13764;SDS011;6953;48.810;9.204;2022-12-22T05:56:04;0.50;;;0.50;;
13764;SDS011;6953;48.810;9.204;2022-12-22T05:58:31;0.40;;;0.40;;
13764;SDS011;6953;48.810;9.204;2022-12-22T06:00:57;0.40;;;0.40;;
13764;SDS011;6953;48.810;9.204;2022-12-22T06:03:24;0.43;;;0.43;;
13764;SDS011;6953;48.810;9.204;2022-12-22T06:05:50;0.50;;;0.50;;
13764;SDS011;6953;48.810;9.204;2022-12-22T06:08:16;0.47;;;0.47;;
13764;SDS011;6953;48.810;9.204;2022-12-22T06:10:42;0.30;;;0.30;;
13764;SDS011;6953;48.810;9.204;2022-12-22T06:13:07;0.50;;;0.50;;
13764;SDS011;6953;48.810;9.204;2022-12-22T06:15:32;0.40;;;0.40;;
13764;SDS011;6953;48.810;9.204;2022-12-22T06:17:58;0.45;;;0.45;;
13764;SDS011;6953;48.810;9.204;2022-12-22T06:20:23;0.40;;;0.40;;
13764;SDS011;6953;48.810;9.204;2022-12-22T06:22:49;0.50;;;0.50;;
13764;SDS011;6953;48.810;9.204;2022-12-22T06:25:14;0.43;;;0.43;;
13764;SDS011;6953;48.810;9.204;2022-12-22T06:27:40;0.45;;;0.45;;
13764;SDS011;6953;48.810;9.204;2022-12-22T06:30:05;0.40;;;0.40;;
13764;SDS011;6953;48.810;9.204;2022-12-22T06:32:34;0.50;;;0.50;;
13764;SDS011;6953;48.810;9.204;2022-12-22T06:35:00;0.50;;;0.50;;
13764;SDS011;6953;48.810;9.204;2022-12-22T06:37:25;0.50;;;0.50;;
13764;SDS011;6953;48.810;9.204;2022-12-22T06:39:50;0.50;;;0.50;;
13764;SDS011;6953;48.810;9.204;2022-12-22T06:42:16;0.50;;;0.50;;
13764;SDS011;6953;48.810;9.204;2022-12-22T06:45:00;0.50;;;0.50;;
13764;SDS011;6953;48.810;9.204;2022-12-22T06:47:25;0.40;;;0.40;;
13764;SDS011;6953;48.810;9.204;2022-12-22T06:49:50;0.50;;;0.50;;
13764;SDS011;6953;48.810;9.204;2022-12-22T06:52:16;0.50;;;0.50;;
13764;SDS011;6953;48.810;9.204;2022-12-22T06:54:41;0.40;;;0.40;;
13764;SDS011;6953;48.810;9.204;2022-12-22T06:57:07;0.50;;;0.50;;
13764;SDS011;6953;48.810;9.204;2022-12-22T06:59:32;0.43;;;0.43;;
13764;SDS011;6953;48.810;9.204;2022-12-22T07:01:57;0.40;;;0.40;;
13764;SDS011;6953;48.810;9.204;2022-12-22T07:04:23;0.50;;;0.50;;
13764;SDS011;6953;48.810;9.204;2022-12-22T07:06:48;0.40;;;0.40;;
13764;SDS011;6953;48.810;9.204;2022-12-22T07:09:14;0.50;;;0.50;;
13764;SDS011;6953;48.810;9.204;2022-12-22T07:11:39;0.50;;;0.50;;
13764;SDS011;6953;48.810;9.204;2022-12-22T07:14:05;0.43;;;0.43;;
13764;SDS011;6953;48.810;9.204;2022-12-22T07:16:31;0.50;;;0.50;;
13764;SDS011;6953;48.810;9.204;2022-12-22T07:18:56;0.30;;;0.30;;
13764;SDS011;6953;48.810;9.204;2022-12-22T07:21:21;0.40;;;0.40;;
13764;SDS011;6953;48.810;9.204;2022-12-22T07:23:46;0.40;;;0.40;;
13764;SDS011;6953;48.810;9.204;2022-12-22T07:26:12;0.40;;;0.40;;
13764;SDS011;6953;48.810;9.204;2022-12-22T07:28:38;0.50;;;0.50;;
13764;SDS011;6953;48.810;9.204;2022-12-22T07:31:05;0.40;;;0.40;;
13764;SDS011;6953;48.810;9.204;2022-12-22T07:33:31;0.50;;;0.50;;
13764;SDS011;6953;48.810;9.204;2022-12-22T07:36:04;0.40;;;0.40;;
13764;SDS011;6953;48.810;9.204;2022-12-22T07:38:37;0.50;;;0.50;;
13764;SDS011;6953;48.810;9.204;2022-12-22T07:41:04;0.40;;;0.40;;
13764;SDS011;6953;48.810;9.204;2022-12-22T07:43:51;0.40;;;0.40;;
13764;SDS011;6953;48.810;9.204;2022-12-22T07:46:17;0.30;;;0.30;;
13764;SDS011;6953;48.810;9.204;2022-12-22T07:48:42;0.50;;;0.50;;
13764;SDS011;6953;48.810;9.204;2022-12-22T07:51:26;0.40;;;0.40;;
13764;SDS011;6953;48.810;9.204;2022-12-22T07:53:51;0.50;;;0.50;;
13764;SDS011;6953;48.810;9.204;2022-12-22T07:56:17;0.40;;;0.40;;
13764;SDS011;6953;48.810;9.204;2022-12-22T07:58:42;0.50;;;0.50;;
13764;SDS011;6953;48.810;9.204;2022-12-22T08:01:07;0.30;;;0.30;;
13764;SDS011;6953;48.810;9.204;2022-12-22T08:03:33;0.40;;;0.40;;
13764;SDS011;6953;48.810;9.204;2022-12-22T08:05:58;0.40;;;0.40;;
13764;SDS011;6953;48.810;9.204;2022-12-22T08:08:28;0.40;;;0.40;;
13764;SDS011;6953;48.810;9.204;2022-12-22T08:10:53;0.40;;;0.40;;
13764;SDS011;6953;48.810;9.204;2022-12-22T08:13:18;0.40;;;0.40;;
13764;SDS011;6953;48.810;9.204;2022-12-22T08:15:44;0.40;;;0.40;;
13764;SDS011;6953;48.810;9.204;2022-12-22T08:18:09;0.40;;;0.40;;
13764;SDS011;6953;48.810;9.204;2022-12-22T08:20:36;0.40;;;0.40;;
13764;SDS011;6953;48.810;9.204;2022-12-22T08:23:02;0.50;;;0.50;;
13764;SDS011;6953;48.810;9.204;2022-12-22T08:25:28;0.40;;;0.40;;
13764;SDS011;6953;48.810;9.204;2022-12-22T08:27:55;0.40;;;0.40;;
13764;SDS011;6953;48.810;9.204;2022-12-22T08:30:22;0.35;;;0.35;;
13764;SDS011;6953;48.810;9.204;2022-12-22T08:32:48;0.40;;;0.40;;
13764;SDS011;6953;48.810;9.204;2022-12-22T08:35:14;0.40;;;0.40;;
13764;SDS011;6953;48.810;9.204;2022-12-22T08:37:41;0.50;;;0.50;;
13764;SDS011;6953;48.810;9.204;2022-12-22T08:40:10;0.30;;;0.30;;
13764;SDS011;6953;48.810;9.204;2022-12-22T08:42:38;0.40;;;0.40;;
13764;SDS011;6953;48.810;9.204;2022-12-22T08:45:05;0.50;;;0.50;;
13764;SDS011;6953;48.810;9.204;2022-12-22T08:47:34;0.40;;;0.40;;
13764;SDS011;6953;48.810;9.204;2022-12-22T08:50:00;0.40;;;0.40;;
13764;SDS011;6953;48.810;9.204;2022-12-22T08:52:25;0.40;;;0.40;;
13764;SDS011;6953;48.810;9.204;2022-12-22T08:54:50;0.40;;;0.40;;
13764;SDS011;6953;48.810;9.204;2022-12-22T08:57:16;0.40;;;0.40;;
13764;SDS011;6953;48.810;9.204;2022-12-22T08:59:41;0.40;;;0.40;;
13764;SDS011;6953;48.810;9.204;2022-12-22T09:02:07;0.40;;;0.40;;
13764;SDS011;6953;48.810;9.204;2022-12-22T09:04:33;0.40;;;0.40;;
13764;SDS011;6953;48.810;9.204;2022-12-22T09:07:00;0.38;;;0.38;;
13764;SDS011;6953;48.810;9.204;2022-12-22T09:09:32;0.40;;;0.40;;
13764;SDS011;6953;48.810;9.204;2022-12-22T09:11:59;0.40;;;0.40;;
13764;SDS011;6953;48.810;9.204;2022-12-22T09:14:26;0.40;;;0.40;;
13764;SDS011;6953;48.810;9.204;2022-12-22T09:16:51;0.40;;;0.40;;
13764;SDS011;6953;48.810;9.204;2022-12-22T09:19:17;0.35;;;0.35;;
13764;SDS011;6953;48.810;9.204;2022-12-22T09:21:42;0.40;;;0.40;;
13764;SDS011;6953;48.810;9.204;2022-12-22T09:24:09;0.35;;;0.35;;
13764;SDS011;6953;48.810;9.204;2022-12-22T09:26:34;0.30;;;0.30;;
13764;SDS011;6953;48.810;9.204;2022-12-22T09:29:02;0.40;;;0.40;;
13764;SDS011;6953;48.810;9.204;2022-12-22T09:31:29;0.43;;;0.43;;
13764;SDS011;6953;48.810;9.204;2022-12-22T09:33:54;0.40;;;0.40;;
13764;SDS011;6953;48.810;9.204;2022-12-22T09:36:21;0.47;;;0.47;;
13764;SDS011;6953;48.810;9.204;2022-12-22T09:38:48;0.50;;;0.50;;
13764;SDS011;6953;48.810;9.204;2022-12-22T09:44:13;0.40;;;0.40;;
13764;SDS011;6953;48.810;9.204;2022-12-22T09:46:39;0.40;;;0.40;;
13764;SDS011;6953;48.810;9.204;2022-12-22T09:49:05;0.50;;;0.50;;
13764;SDS011;6953;48.810;9.204;2022-12-22T09:51:32;0.50;;;0.50;;
13764;SDS011;6953;48.810;9.204;2022-12-22T09:54:04;0.50;;;0.50;;
13764;SDS011;6953;48.810;9.204;2022-12-22T09:56:29;0.50;;;0.50;;
13764;SDS011;6953;48.810;9.204;2022-12-22T09:58:55;0.50;;;0.50;;
13764;SDS011;6953;48.810;9.204;2022-12-22T10:01:25;0.43;;;0.43;;
13764;SDS011;6953;48.810;9.204;2022-12-22T10:04:05;0.40;;;0.40;;
13764;SDS011;6953;48.810;9.204;2022-12-22T10:09:21;0.50;;;0.50;;
13764;SDS011;6953;48.810;9.204;2022-12-22T10:11:53;0.50;;;0.50;;
13764;SDS011;6953;48.810;9.204;2022-12-22T10:14:42;0.50;;;0.50;;
13764;SDS011;6953;48.810;9.204;2022-12-22T10:19:44;0.50;;;0.50;;
13764;SDS011;6953;48.810;9.204;2022-12-22T10:22:31;0.40;;;0.40;;
13764;SDS011;6953;48.810;9.204;2022-12-22T10:24:59;0.47;;;0.47;;
13764;SDS011;6953;48.810;9.204;2022-12-22T10:27:28;0.40;;;0.40;;
13764;SDS011;6953;48.810;9.204;2022-12-22T10:33:05;0.50;;;0.50;;
13764;SDS011;6953;48.810;9.204;2022-12-22T10:35:41;0.40;;;0.40;;
13764;SDS011;6953;48.810;9.204;2022-12-22T10:40:44;0.40;;;0.40;;
13764;SDS011;6953;48.810;9.204;2022-12-22T10:43:17;0.47;;;0.47;;
13764;SDS011;6953;48.810;9.204;2022-12-22T10:45:48;0.40;;;0.40;;
13764;SDS011;6953;48.810;9.204;2022-12-22T10:48:14;0.40;;;0.40;;
13764;SDS011;6953;48.810;9.204;2022-12-22T10:50:45;0.50;;;0.50;;
13764;SDS011;6953;48.810;9.204;2022-12-22T10:53:12;0.50;;;0.50;;
13764;SDS011;6953;48.810;9.204;2022-12-22T10:55:38;0.50;;;0.50;;
13764;SDS011;6953;48.810;9.204;2022-12-22T11:00:35;0.50;;;0.50;;
13764;SDS011;6953;48.810;9.204;2022-12-22T11:03:05;0.40;;;0.40;;
13764;SDS011;6953;48.810;9.204;2022-12-22T11:05:35;0.40;;;0.40;;
13764;SDS011;6953;48.810;9.204;2022-12-22T11:08:14;0.50;;;0.50;;
13764;SDS011;6953;48.810;9.204;2022-12-22T11:15:47;0.40;;;0.40;;
13764;SDS011;6953;48.810;9.204;2022-12-22T11:21:19;0.50;;;0.50;;
13764;SDS011;6953;48.810;9.204;2022-12-22T11:23:57;0.40;;;0.40;;
13764;SDS011;6953;48.810;9.204;2022-12-22T11:29:56;0.40;;;0.40;;
13764;SDS011;6953;48.810;9.204;2022-12-22T11:33:05;0.45;;;0.45;;
13764;SDS011;6953;48.810;9.204;2022-12-22T11:35:44;0.40;;;0.40;;
13764;SDS011;6953;48.810;9.204;2022-12-22T11:43:43;0.40;;;0.40;;
13764;SDS011;6953;48.810;9.204;2022-12-22T11:48:58;0.40;;;0.40;;
13764;SDS011;6953;48.810;9.204;2022-12-22T11:57:13;0.38;;;0.38;;
13764;SDS011;6953;48.810;9.204;2022-12-22T11:59:50;0.40;;;0.40;;
13764;SDS011;6953;48.810;9.204;2022-12-22T12:07:44;0.30;;;0.30;;
13764;SDS011;6953;48.810;9.204;2022-12-22T12:10:20;0.20;;;0.20;;
13764;SDS011;6953;48.810;9.204;2022-12-22T12:15:40;0.28;;;0.28;;
13764;SDS011;6953;48.810;9.204;2022-12-22T12:26:35;0.20;;;0.20;;
13764;SDS011;6953;48.810;9.204;2022-12-22T12:29:46;0.20;;;0.20;;
13764;SDS011;6953;48.810;9.204;2022-12-22T12:34:35;0.20;;;0.20;;
13764;SDS011;6953;48.810;9.204;2022-12-22T12:37:07;0.20;;;0.20;;
13764;SDS011;6953;48.810;9.204;2022-12-22T12:42:39;0.28;;;0.28;;
13764;SDS011;6953;48.810;9.204;2022-12-22T12:50:48;0.20;;;0.20;;
13764;SDS011;6953;48.810;9.204;2022-12-22T12:53:17;0.30;;;0.30;;
13764;SDS011;6953;48.810;9.204;2022-12-22T12:58:27;0.30;;;0.30;;
13764;SDS011;6953;48.810;9.204;2022-12-22T13:01:12;0.30;;;0.30;;
13764;SDS011;6953;48.810;9.204;2022-12-22T13:08:03;0.30;;;0.30;;
13764;SDS011;6953;48.810;9.204;2022-12-22T13:10:24;0.32;;;0.32;;
13764;SDS011;6953;48.810;9.204;2022-12-22T13:12:51;0.40;;;0.40;;
13764;SDS011;6953;48.810;9.204;2022-12-22T13:15:28;0.40;;;0.40;;
13764;SDS011;6953;48.810;9.204;2022-12-22T13:18:01;0.40;;;0.40;;
13764;SDS011;6953;48.810;9.204;2022-12-22T13:20:34;0.30;;;0.30;;
13764;SDS011;6953;48.810;9.204;2022-12-22T13:23:02;0.30;;;0.30;;
13764;SDS011;6953;48.810;9.204;2022-12-22T13:25:40;0.20;;;0.20;;
13764;SDS011;6953;48.810;9.204;2022-12-22T13:28:18;0.40;;;0.40;;
13764;SDS011;6953;48.810;9.204;2022-12-22T13:30:49;0.40;;;0.40;;
13764;SDS011;6953;48.810;9.204;2022-12-22T13:33:17;0.30;;;0.30;;
13764;SDS011;6953;48.810;9.204;2022-12-22T13:35:47;0.30;;;0.30;;
13764;SDS011;6953;48.810;9.204;2022-12-22T13:38:28;0.40;;;0.40;;
13764;SDS011;6953;48.810;9.204;2022-12-22T13:40:56;0.40;;;0.40;;
13764;SDS011;6953;48.810;9.204;2022-12-22T13:43:23;0.30;;;0.30;;
13764;SDS011;6953;48.810;9.204;2022-12-22T13:45:52;0.30;;;0.30;;
13764;SDS011;6953;48.810;9.204;2022-12-22T13:48:32;0.40;;;0.40;;
13764;SDS011;6953;48.810;9.204;2022-12-22T13:51:03;0.40;;;0.40;;
13764;SDS011;6953;48.810;9.204;2022-12-22T13:53:35;0.30;;;0.30;;
13764;SDS011;6953;48.810;9.204;2022-12-22T13:56:04;0.30;;;0.30;;
13764;SDS011;6953;48.810;9.204;2022-12-22T13:58:40;0.30;;;0.30;;
13764;SDS011;6953;48.810;9.204;2022-12-22T14:03:35;0.40;;;0.40;;
13764;SDS011;6953;48.810;9.204;2022-12-22T14:06:01;0.30;;;0.30;;
13764;SDS011;6953;48.810;9.204;2022-12-22T14:08:27;0.30;;;0.30;;
13764;SDS011;6953;48.810;9.204;2022-12-22T14:10:52;0.30;;;0.30;;
13764;SDS011;6953;48.810;9.204;2022-12-22T14:13:21;0.30;;;0.30;;
13764;SDS011;6953;48.810;9.204;2022-12-22T14:16:02;0.30;;;0.30;;
13764;SDS011;6953;48.810;9.204;2022-12-22T14:18:29;0.30;;;0.30;;
13764;SDS011;6953;48.810;9.204;2022-12-22T14:20:56;0.30;;;0.30;;
13764;SDS011;6953;48.810;9.204;2022-12-22T14:25:53;0.30;;;0.30;;
13764;SDS011;6953;48.810;9.204;2022-12-22T14:28:22;0.30;;;0.30;;
13764;SDS011;6953;48.810;9.204;2022-12-22T14:30:57;0.40;;;0.40;;
13764;SDS011;6953;48.810;9.204;2022-12-22T14:36:10;0.40;;;0.40;;
13764;SDS011;6953;48.810;9.204;2022-12-22T14:38:57;0.35;;;0.35;;
13764;SDS011;6953;48.810;9.204;2022-12-22T14:41:25;0.40;;;0.40;;
13764;SDS011;6953;48.810;9.204;2022-12-22T14:44:25;0.40;;;0.40;;
13764;SDS011;6953;48.810;9.204;2022-12-22T14:47:11;0.32;;;0.32;;
13764;SDS011;6953;48.810;9.204;2022-12-22T14:49:45;0.40;;;0.40;;
13764;SDS011;6953;48.810;9.204;2022-12-22T14:54:59;0.40;;;0.40;;
13764;SDS011;6953;48.810;9.204;2022-12-22T14:57:36;0.40;;;0.40;;
13764;SDS011;6953;48.810;9.204;2022-12-22T15:00:08;0.40;;;0.40;;
13764;SDS011;6953;48.810;9.204;2022-12-22T15:02:38;0.30;;;0.30;;
13764;SDS011;6953;48.810;9.204;2022-12-22T15:05:23;0.40;;;0.40;;
13764;SDS011;6953;48.810;9.204;2022-12-22T15:07:50;0.30;;;0.30;;
13764;SDS011;6953;48.810;9.204;2022-12-22T15:10:20;0.40;;;0.40;;
13764;SDS011;6953;48.810;9.204;2022-12-22T15:12:46;0.40;;;0.40;;
13764;SDS011;6953;48.810;9.204;2022-12-22T15:15:14;0.40;;;0.40;;
13764;SDS011;6953;48.810;9.204;2022-12-22T15:17:43;0.50;;;0.50;;
13764;SDS011;6953;48.810;9.204;2022-12-22T15:20:14;0.40;;;0.40;;
13764;SDS011;6953;48.810;9.204;2022-12-22T15:22:43;0.40;;;0.40;;
13764;SDS011;6953;48.810;9.204;2022-12-22T15:25:13;0.40;;;0.40;;
13764;SDS011;6953;48.810;9.204;2022-12-22T15:27:42;0.32;;;0.32;;
13764;SDS011;6953;48.810;9.204;2022-12-22T15:30:09;0.40;;;0.40;;
13764;SDS011;6953;48.810;9.204;2022-12-22T15:32:36;0.50;;;0.50;;
13764;SDS011;6953;48.810;9.204;2022-12-22T15:35:02;0.40;;;0.40;;
13764;SDS011;6953;48.810;9.204;2022-12-22T15:37:35;0.40;;;0.40;;
13764;SDS011;6953;48.810;9.204;2022-12-22T15:40:00;0.40;;;0.40;;
13764;SDS011;6953;48.810;9.204;2022-12-22T15:42:25;0.40;;;0.40;;
13764;SDS011;6953;48.810;9.204;2022-12-22T15:44:51;0.32;;;0.32;;
13764;SDS011;6953;48.810;9.204;2022-12-22T15:47:16;0.40;;;0.40;;
13764;SDS011;6953;48.810;9.204;2022-12-22T15:49:43;0.40;;;0.40;;
13764;SDS011;6953;48.810;9.204;2022-12-22T15:52:08;0.38;;;0.38;;
13764;SDS011;6953;48.810;9.204;2022-12-22T15:54:37;0.40;;;0.40;;
13764;SDS011;6953;48.810;9.204;2022-12-22T15:57:02;0.40;;;0.40;;
13764;SDS011;6953;48.810;9.204;2022-12-22T15:59:28;0.38;;;0.38;;
13764;SDS011;6953;48.810;9.204;2022-12-22T16:01:54;0.40;;;0.40;;
13764;SDS011;6953;48.810;9.204;2022-12-22T16:04:23;0.40;;;0.40;;
13764;SDS011;6953;48.810;9.204;2022-12-22T16:06:49;0.50;;;0.50;;
13764;SDS011;6953;48.810;9.204;2022-12-22T16:09:22;0.50;;;0.50;;
13764;SDS011;6953;48.810;9.204;2022-12-22T16:11:51;0.50;;;0.50;;
13764;SDS011;6953;48.810;9.204;2022-12-22T16:14:16;0.40;;;0.40;;
13764;SDS011;6953;48.810;9.204;2022-12-22T16:16:44;0.50;;;0.50;;
13764;SDS011;6953;48.810;9.204;2022-12-22T16:19:17;0.40;;;0.40;;
13764;SDS011;6953;48.810;9.204;2022-12-22T16:21:47;0.50;;;0.50;;
13764;SDS011;6953;48.810;9.204;2022-12-22T16:24:29;0.50;;;0.50;;
13764;SDS011;6953;48.810;9.204;2022-12-22T16:26:56;0.40;;;0.40;;
13764;SDS011;6953;48.810;9.204;2022-12-22T16:29:22;0.50;;;0.50;;
13764;SDS011;6953;48.810;9.204;2022-12-22T16:31:49;0.50;;;0.50;;
13764;SDS011;6953;48.810;9.204;2022-12-22T16:34:14;0.50;;;0.50;;
13764;SDS011;6953;48.810;9.204;2022-12-22T16:36:40;0.50;;;0.50;;
13764;SDS011;6953;48.810;9.204;2022-12-22T16:39:06;0.50;;;0.50;;
13764;SDS011;6953;48.810;9.204;2022-12-22T16:41:32;0.50;;;0.50;;
13764;SDS011;6953;48.810;9.204;2022-12-22T16:43:58;0.40;;;0.40;;
13764;SDS011;6953;48.810;9.204;2022-12-22T16:46:24;0.50;;;0.50;;
13764;SDS011;6953;48.810;9.204;2022-12-22T16:48:52;0.40;;;0.40;;
13764;SDS011;6953;48.810;9.204;2022-12-22T16:51:23;0.40;;;0.40;;
13764;SDS011;6953;48.810;9.204;2022-12-22T16:53:50;0.40;;;0.40;;
13764;SDS011;6953;48.810;9.204;2022-12-22T16:56:17;0.50;;;0.50;;
13764;SDS011;6953;48.810;9.204;2022-12-22T16:58:45;0.47;;;0.47;;
13764;SDS011;6953;48.810;9.204;2022-12-22T17:01:54;0.50;;;0.50;;
13764;SDS011;6953;48.810;9.204;2022-12-22T17:04:07;0.50;;;0.50;;
13764;SDS011;6953;48.810;9.204;2022-12-22T17:06:40;0.50;;;0.50;;
13764;SDS011;6953;48.810;9.204;2022-12-22T17:09:06;0.50;;;0.50;;